sensor_id;sensor_type;location;lat;lon;timestamp;temperature;humidity
14985;DHT22;7588;62.368;25.902;2023-01-16T00:00:31;1.60;99.90
14985;DHT22;7588;62.368;25.902;2023-01-16T00:02:57;1.60;99.90
14985;DHT22;7588;62.368;25.902;2023-01-16T00:05:22;1.60;99.90
14985;DHT22;7588;62.368;25.902;2023-01-16T00:07:48;1.60;99.90
14985;DHT22;7588;62.368;25.902;2023-01-16T00:10:14;1.60;99.90
14985;DHT22;7588;62.368;25.902;2023-01-16T00:12:42;1.60;99.90
14985;DHT22;7588;62.368;25.902;2023-01-16T00:15:07;1.50;99.90
14985;DHT22;7588;62.368;25.902;2023-01-16T00:17:33;1.50;99.90
14985;DHT22;7588;62.368;25.902;2023-01-16T00:19:59;1.40;99.90
14985;DHT22;7588;62.368;25.902;2023-01-16T00:22:25;1.30;99.90
14985;DHT22;7588;62.368;25.902;2023-01-16T00:24:50;1.30;99.90
14985;DHT22;7588;62.368;25.902;2023-01-16T00:27:16;1.40;99.90
14985;DHT22;7588;62.368;25.902;2023-01-16T00:29:42;1.40;99.90
14985;DHT22;7588;62.368;25.902;2023-01-16T00:32:07;1.40;99.90
14985;DHT22;7588;62.368;25.902;2023-01-16T00:34:35;1.40;99.90
14985;DHT22;7588;62.368;25.902;2023-01-16T00:37:01;1.40;99.90
14985;DHT22;7588;62.368;25.902;2023-01-16T00:39:27;1.40;99.90
14985;DHT22;7588;62.368;25.902;2023-01-16T00:41:52;1.40;99.90
14985;DHT22;7588;62.368;25.902;2023-01-16T00:44:18;1.50;99.90
14985;DHT22;7588;62.368;25.902;2023-01-16T00:46:44;1.50;99.90
14985;DHT22;7588;62.368;25.902;2023-01-16T00:49:10;1.50;99.90
14985;DHT22;7588;62.368;25.902;2023-01-16T00:51:36;1.50;99.90
14985;DHT22;7588;62.368;25.902;2023-01-16T00:54:02;1.60;99.90
14985;DHT22;7588;62.368;25.902;2023-01-16T00:56:27;1.70;99.90
14985;DHT22;7588;62.368;25.902;2023-01-16T00:58:53;1.70;99.90
14985;DHT22;7588;62.368;25.902;2023-01-16T01:01:19;1.70;99.90
14985;DHT22;7588;62.368;25.902;2023-01-16T01:03:45;1.70;99.90
14985;DHT22;7588;62.368;25.902;2023-01-16T01:06:11;1.80;99.90
14985;DHT22;7588;62.368;25.902;2023-01-16T01:08:37;1.80;99.90
14985;DHT22;7588;62.368;25.902;2023-01-16T01:11:13;1.80;99.90
14985;DHT22;7588;62.368;25.902;2023-01-16T01:13:40;1.80;99.90
14985;DHT22;7588;62.368;25.902;2023-01-16T01:16:07;1.80;99.90
14985;DHT22;7588;62.368;25.902;2023-01-16T01:18:33;1.80;99.90
14985;DHT22;7588;62.368;25.902;2023-01-16T01:20:59;1.70;99.90
14985;DHT22;7588;62.368;25.902;2023-01-16T01:23:25;1.70;99.90
14985;DHT22;7588;62.368;25.902;2023-01-16T01:25:51;1.80;99.90
14985;DHT22;7588;62.368;25.902;2023-01-16T01:28:18;1.80;99.90
14985;DHT22;7588;62.368;25.902;2023-01-16T01:30:44;1.80;99.90
14985;DHT22;7588;62.368;25.902;2023-01-16T01:33:10;1.80;99.90
14985;DHT22;7588;62.368;25.902;2023-01-16T01:35:36;1.80;99.90
14985;DHT22;7588;62.368;25.902;2023-01-16T01:38:02;1.80;99.90
14985;DHT22;7588;62.368;25.902;2023-01-16T01:40:28;1.80;99.90
14985;DHT22;7588;62.368;25.902;2023-01-16T01:42:54;1.80;99.90
14985;DHT22;7588;62.368;25.902;2023-01-16T01:53:22;1.90;99.90
14985;DHT22;7588;62.368;25.902;2023-01-16T01:55:51;1.80;99.90
14985;DHT22;7588;62.368;25.902;2023-01-16T01:58:21;1.80;99.90
14985;DHT22;7588;62.368;25.902;2023-01-16T02:00:51;1.80;99.90
14985;DHT22;7588;62.368;25.902;2023-01-16T02:03:31;1.80;99.90
14985;DHT22;7588;62.368;25.902;2023-01-16T02:06:00;1.80;99.90
14985;DHT22;7588;62.368;25.902;2023-01-16T02:08:31;1.80;99.90
14985;DHT22;7588;62.368;25.902;2023-01-16T02:11:10;1.70;99.90
14985;DHT22;7588;62.368;25.902;2023-01-16T02:13:53;1.70;99.90
14985;DHT22;7588;62.368;25.902;2023-01-16T02:16:19;1.70;99.90
14985;DHT22;7588;62.368;25.902;2023-01-16T02:19:04;1.70;99.90
14985;DHT22;7588;62.368;25.902;2023-01-16T02:27:16;1.70;99.90
14985;DHT22;7588;62.368;25.902;2023-01-16T02:33:02;1.70;99.90
14985;DHT22;7588;62.368;25.902;2023-01-16T02:35:59;1.70;99.90
14985;DHT22;7588;62.368;25.902;2023-01-16T02:49:48;1.60;99.90
14985;DHT22;7588;62.368;25.902;2023-01-16T02:55:03;1.60;99.90
14985;DHT22;7588;62.368;25.902;2023-01-16T02:57:35;1.60;99.90
14985;DHT22;7588;62.368;25.902;2023-01-16T03:00:05;1.60;99.90
14985;DHT22;7588;62.368;25.902;2023-01-16T03:02:31;1.60;99.90
14985;DHT22;7588;62.368;25.902;2023-01-16T03:04:57;1.60;99.90
14985;DHT22;7588;62.368;25.902;2023-01-16T03:23:59;1.50;99.90
14985;DHT22;7588;62.368;25.902;2023-01-16T03:26:45;1.60;99.90
14985;DHT22;7588;62.368;25.902;2023-01-16T03:29:39;1.50;99.90
14985;DHT22;7588;62.368;25.902;2023-01-16T03:32:16;1.60;99.90
14985;DHT22;7588;62.368;25.902;2023-01-16T03:34:54;1.60;99.90
14985;DHT22;7588;62.368;25.902;2023-01-16T03:37:44;1.60;99.90
14985;DHT22;7588;62.368;25.902;2023-01-16T03:45:51;1.60;99.90
14985;DHT22;7588;62.368;25.902;2023-01-16T03:48:50;1.70;99.90
14985;DHT22;7588;62.368;25.902;2023-01-16T03:51:24;1.70;99.90
14985;DHT22;7588;62.368;25.902;2023-01-16T03:57:08;1.70;99.90
14985;DHT22;7588;62.368;25.902;2023-01-16T03:59:37;1.70;99.90
14985;DHT22;7588;62.368;25.902;2023-01-16T04:02:16;1.60;99.90
14985;DHT22;7588;62.368;25.902;2023-01-16T04:04:58;1.70;99.90
14985;DHT22;7588;62.368;25.902;2023-01-16T04:10:00;1.70;99.90
14985;DHT22;7588;62.368;25.902;2023-01-16T04:12:37;1.70;99.90
14985;DHT22;7588;62.368;25.902;2023-01-16T04:15:07;1.70;99.90
14985;DHT22;7588;62.368;25.902;2023-01-16T04:17:34;1.70;99.90
14985;DHT22;7588;62.368;25.902;2023-01-16T04:20:02;1.70;99.90
14985;DHT22;7588;62.368;25.902;2023-01-16T04:22:29;1.70;99.90
14985;DHT22;7588;62.368;25.902;2023-01-16T04:25:00;1.80;99.90
14985;DHT22;7588;62.368;25.902;2023-01-16T04:27:27;1.80;99.90
14985;DHT22;7588;62.368;25.902;2023-01-16T04:29:52;1.80;99.90
14985;DHT22;7588;62.368;25.902;2023-01-16T04:32:18;1.80;99.90
14985;DHT22;7588;62.368;25.902;2023-01-16T04:34:44;1.80;99.90
14985;DHT22;7588;62.368;25.902;2023-01-16T04:37:19;1.80;99.90
14985;DHT22;7588;62.368;25.902;2023-01-16T04:39:45;1.80;99.90
14985;DHT22;7588;62.368;25.902;2023-01-16T04:42:13;1.80;99.90
14985;DHT22;7588;62.368;25.902;2023-01-16T04:44:38;1.80;99.90
14985;DHT22;7588;62.368;25.902;2023-01-16T04:47:04;1.80;99.90
14985;DHT22;7588;62.368;25.902;2023-01-16T04:49:30;1.80;99.90
14985;DHT22;7588;62.368;25.902;2023-01-16T04:51:56;1.80;99.90
14985;DHT22;7588;62.368;25.902;2023-01-16T04:54:22;1.80;99.90
14985;DHT22;7588;62.368;25.902;2023-01-16T04:56:47;1.80;99.90
14985;DHT22;7588;62.368;25.902;2023-01-16T04:59:13;1.80;99.90
14985;DHT22;7588;62.368;25.902;2023-01-16T05:01:40;1.70;99.90
14985;DHT22;7588;62.368;25.902;2023-01-16T05:04:07;1.70;99.90
14985;DHT22;7588;62.368;25.902;2023-01-16T05:06:34;1.70;99.90
14985;DHT22;7588;62.368;25.902;2023-01-16T05:09:01;1.70;99.90
14985;DHT22;7588;62.368;25.902;2023-01-16T05:11:27;1.70;99.90
14985;DHT22;7588;62.368;25.902;2023-01-16T05:13:52;1.60;99.90
14985;DHT22;7588;62.368;25.902;2023-01-16T05:16:18;1.70;99.90
14985;DHT22;7588;62.368;25.902;2023-01-16T05:18:44;1.60;99.90
14985;DHT22;7588;62.368;25.902;2023-01-16T05:21:10;1.60;99.90
14985;DHT22;7588;62.368;25.902;2023-01-16T05:23:35;1.60;99.90
14985;DHT22;7588;62.368;25.902;2023-01-16T05:26:03;1.60;99.90
14985;DHT22;7588;62.368;25.902;2023-01-16T05:28:29;1.60;99.90
14985;DHT22;7588;62.368;25.902;2023-01-16T05:30:55;1.50;99.90
14985;DHT22;7588;62.368;25.902;2023-01-16T05:33:21;1.50;99.90
14985;DHT22;7588;62.368;25.902;2023-01-16T05:35:47;1.50;99.90
14985;DHT22;7588;62.368;25.902;2023-01-16T05:38:14;1.50;99.90
14985;DHT22;7588;62.368;25.902;2023-01-16T05:40:40;1.50;99.90
14985;DHT22;7588;62.368;25.902;2023-01-16T05:43:06;1.50;99.90
14985;DHT22;7588;62.368;25.902;2023-01-16T05:45:31;1.60;99.90
14985;DHT22;7588;62.368;25.902;2023-01-16T05:47:57;1.60;99.90
14985;DHT22;7588;62.368;25.902;2023-01-16T05:50:23;1.60;99.90
14985;DHT22;7588;62.368;25.902;2023-01-16T05:52:49;1.60;99.90
14985;DHT22;7588;62.368;25.902;2023-01-16T05:55:16;1.60;99.90
14985;DHT22;7588;62.368;25.902;2023-01-16T05:57:41;1.60;99.90
14985;DHT22;7588;62.368;25.902;2023-01-16T06:00:08;1.60;99.90
14985;DHT22;7588;62.368;25.902;2023-01-16T06:02:34;1.60;99.90
14985;DHT22;7588;62.368;25.902;2023-01-16T06:04:59;1.60;99.90
14985;DHT22;7588;62.368;25.902;2023-01-16T06:07:25;1.70;99.90
14985;DHT22;7588;62.368;25.902;2023-01-16T06:09:51;1.70;99.90
14985;DHT22;7588;62.368;25.902;2023-01-16T06:12:18;1.80;99.90
14985;DHT22;7588;62.368;25.902;2023-01-16T06:14:44;1.80;99.90
14985;DHT22;7588;62.368;25.902;2023-01-16T06:17:11;1.80;99.90
14985;DHT22;7588;62.368;25.902;2023-01-16T06:19:40;1.80;99.90
14985;DHT22;7588;62.368;25.902;2023-01-16T06:22:06;1.80;99.90
14985;DHT22;7588;62.368;25.902;2023-01-16T06:24:32;1.80;99.90
14985;DHT22;7588;62.368;25.902;2023-01-16T06:26:58;1.70;99.90
14985;DHT22;7588;62.368;25.902;2023-01-16T06:29:23;1.80;99.90
14985;DHT22;7588;62.368;25.902;2023-01-16T06:31:49;1.80;99.90
14985;DHT22;7588;62.368;25.902;2023-01-16T06:34:15;1.80;99.90
14985;DHT22;7588;62.368;25.902;2023-01-16T06:36:41;1.80;99.90
14985;DHT22;7588;62.368;25.902;2023-01-16T06:39:07;1.70;99.90
14985;DHT22;7588;62.368;25.902;2023-01-16T06:41:33;1.80;99.90
14985;DHT22;7588;62.368;25.902;2023-01-16T06:43:59;1.80;99.90
14985;DHT22;7588;62.368;25.902;2023-01-16T06:46:25;1.80;99.90
14985;DHT22;7588;62.368;25.902;2023-01-16T06:48:50;1.80;99.90
14985;DHT22;7588;62.368;25.902;2023-01-16T06:51:16;1.80;99.90
14985;DHT22;7588;62.368;25.902;2023-01-16T06:53:42;1.80;99.90
14985;DHT22;7588;62.368;25.902;2023-01-16T06:56:07;1.80;99.90
14985;DHT22;7588;62.368;25.902;2023-01-16T06:58:33;1.80;99.90
14985;DHT22;7588;62.368;25.902;2023-01-16T07:00:59;1.80;99.90
14985;DHT22;7588;62.368;25.902;2023-01-16T07:03:24;1.80;99.90
14985;DHT22;7588;62.368;25.902;2023-01-16T07:05:50;1.80;99.90
14985;DHT22;7588;62.368;25.902;2023-01-16T07:08:16;1.80;99.90
14985;DHT22;7588;62.368;25.902;2023-01-16T07:10:42;1.80;99.90
14985;DHT22;7588;62.368;25.902;2023-01-16T07:13:08;1.80;99.90
14985;DHT22;7588;62.368;25.902;2023-01-16T07:15:38;1.80;99.90
14985;DHT22;7588;62.368;25.902;2023-01-16T07:18:22;1.80;99.90
14985;DHT22;7588;62.368;25.902;2023-01-16T07:21:11;1.80;99.90
14985;DHT22;7588;62.368;25.902;2023-01-16T07:24:04;1.80;99.90
14985;DHT22;7588;62.368;25.902;2023-01-16T07:26:33;1.80;99.90
14985;DHT22;7588;62.368;25.902;2023-01-16T07:28:59;1.70;99.90
14985;DHT22;7588;62.368;25.902;2023-01-16T07:31:26;1.80;99.90
14985;DHT22;7588;62.368;25.902;2023-01-16T07:33:51;1.80;99.90
14985;DHT22;7588;62.368;25.902;2023-01-16T07:36:17;1.80;99.90
14985;DHT22;7588;62.368;25.902;2023-01-16T07:38:43;1.80;99.90
14985;DHT22;7588;62.368;25.902;2023-01-16T07:41:09;1.80;99.90
14985;DHT22;7588;62.368;25.902;2023-01-16T07:43:34;1.80;99.90
14985;DHT22;7588;62.368;25.902;2023-01-16T07:46:00;1.80;99.90
14985;DHT22;7588;62.368;25.902;2023-01-16T07:48:26;1.80;99.90
14985;DHT22;7588;62.368;25.902;2023-01-16T07:50:53;1.80;99.90
14985;DHT22;7588;62.368;25.902;2023-01-16T07:53:21;1.80;99.90
14985;DHT22;7588;62.368;25.902;2023-01-16T07:55:52;1.90;99.90
14985;DHT22;7588;62.368;25.902;2023-01-16T07:58:19;1.90;99.90
14985;DHT22;7588;62.368;25.902;2023-01-16T08:00:47;1.90;99.90
14985;DHT22;7588;62.368;25.902;2023-01-16T08:03:13;1.80;99.90
14985;DHT22;7588;62.368;25.902;2023-01-16T08:05:40;1.90;99.90
14985;DHT22;7588;62.368;25.902;2023-01-16T08:08:05;1.90;99.90
14985;DHT22;7588;62.368;25.902;2023-01-16T08:10:31;1.90;99.90
14985;DHT22;7588;62.368;25.902;2023-01-16T08:12:57;1.90;99.90
14985;DHT22;7588;62.368;25.902;2023-01-16T08:15:23;1.90;99.90
14985;DHT22;7588;62.368;25.902;2023-01-16T08:17:48;1.90;99.90
14985;DHT22;7588;62.368;25.902;2023-01-16T08:20:14;1.90;99.90
14985;DHT22;7588;62.368;25.902;2023-01-16T08:22:44;1.90;99.90
14985;DHT22;7588;62.368;25.902;2023-01-16T08:25:10;1.90;99.90
14985;DHT22;7588;62.368;25.902;2023-01-16T08:27:35;1.90;99.90
14985;DHT22;7588;62.368;25.902;2023-01-16T08:30:01;1.90;99.90
14985;DHT22;7588;62.368;25.902;2023-01-16T08:32:27;1.90;99.90
14985;DHT22;7588;62.368;25.902;2023-01-16T08:34:53;1.90;99.90
14985;DHT22;7588;62.368;25.902;2023-01-16T08:37:19;2.00;99.90
14985;DHT22;7588;62.368;25.902;2023-01-16T08:39:44;2.00;99.90
14985;DHT22;7588;62.368;25.902;2023-01-16T08:42:10;2.00;99.90
14985;DHT22;7588;62.368;25.902;2023-01-16T08:44:54;2.00;99.90
14985;DHT22;7588;62.368;25.902;2023-01-16T08:47:38;2.00;99.90
14985;DHT22;7588;62.368;25.902;2023-01-16T08:50:22;2.00;99.90
14985;DHT22;7588;62.368;25.902;2023-01-16T08:53:07;2.00;99.90
14985;DHT22;7588;62.368;25.902;2023-01-16T08:55:32;2.00;99.90
14985;DHT22;7588;62.368;25.902;2023-01-16T08:57:58;2.00;99.90
14985;DHT22;7588;62.368;25.902;2023-01-16T09:00:28;2.00;99.90
14985;DHT22;7588;62.368;25.902;2023-01-16T09:02:54;2.10;99.90
14985;DHT22;7588;62.368;25.902;2023-01-16T09:05:22;2.10;99.90
14985;DHT22;7588;62.368;25.902;2023-01-16T09:07:48;2.10;99.90
14985;DHT22;7588;62.368;25.902;2023-01-16T09:10:14;2.10;99.90
14985;DHT22;7588;62.368;25.902;2023-01-16T09:12:40;2.10;99.90
14985;DHT22;7588;62.368;25.902;2023-01-16T09:15:25;2.20;99.90
14985;DHT22;7588;62.368;25.902;2023-01-16T09:17:51;2.20;99.90
14985;DHT22;7588;62.368;25.902;2023-01-16T09:20:17;2.20;99.90
14985;DHT22;7588;62.368;25.902;2023-01-16T09:22:43;2.10;99.90
14985;DHT22;7588;62.368;25.902;2023-01-16T09:25:09;2.20;99.90
14985;DHT22;7588;62.368;25.902;2023-01-16T09:27:35;2.20;99.90
14985;DHT22;7588;62.368;25.902;2023-01-16T09:30:01;2.20;99.90
14985;DHT22;7588;62.368;25.902;2023-01-16T09:32:27;2.20;99.90
14985;DHT22;7588;62.368;25.902;2023-01-16T09:34:52;2.10;99.90
14985;DHT22;7588;62.368;25.902;2023-01-16T09:37:18;2.10;99.90
14985;DHT22;7588;62.368;25.902;2023-01-16T09:39:44;2.10;99.90
14985;DHT22;7588;62.368;25.902;2023-01-16T09:42:34;2.10;99.90
14985;DHT22;7588;62.368;25.902;2023-01-16T09:45:24;2.10;99.90
14985;DHT22;7588;62.368;25.902;2023-01-16T09:47:54;2.10;99.90
14985;DHT22;7588;62.368;25.902;2023-01-16T09:50:39;2.20;99.90
14985;DHT22;7588;62.368;25.902;2023-01-16T09:53:16;2.20;99.90
14985;DHT22;7588;62.368;25.902;2023-01-16T09:56:02;2.10;99.90
14985;DHT22;7588;62.368;25.902;2023-01-16T09:59:31;2.10;99.90
14985;DHT22;7588;62.368;25.902;2023-01-16T10:01:41;2.10;99.90
14985;DHT22;7588;62.368;25.902;2023-01-16T10:04:19;2.10;99.90
14985;DHT22;7588;62.368;25.902;2023-01-16T10:12:14;2.00;99.90
14985;DHT22;7588;62.368;25.902;2023-01-16T10:27:36;2.10;99.90
14985;DHT22;7588;62.368;25.902;2023-01-16T10:30:28;2.10;99.90
14985;DHT22;7588;62.368;25.902;2023-01-16T10:32:58;2.10;99.90
14985;DHT22;7588;62.368;25.902;2023-01-16T10:35:34;2.10;99.90
14985;DHT22;7588;62.368;25.902;2023-01-16T10:38:31;2.10;99.90
14985;DHT22;7588;62.368;25.902;2023-01-16T10:41:20;2.10;99.90
14985;DHT22;7588;62.368;25.902;2023-01-16T10:47:12;2.10;99.90
14985;DHT22;7588;62.368;25.902;2023-01-16T10:49:57;2.10;99.90
14985;DHT22;7588;62.368;25.902;2023-01-16T10:52:23;2.10;99.90
14985;DHT22;7588;62.368;25.902;2023-01-16T10:54:51;2.10;99.90
14985;DHT22;7588;62.368;25.902;2023-01-16T10:57:20;2.10;99.90
14985;DHT22;7588;62.368;25.902;2023-01-16T10:59:49;2.10;99.90
14985;DHT22;7588;62.368;25.902;2023-01-16T11:04:57;2.10;99.90
14985;DHT22;7588;62.368;25.902;2023-01-16T11:07:27;2.10;99.90
14985;DHT22;7588;62.368;25.902;2023-01-16T11:09:54;2.10;99.90
14985;DHT22;7588;62.368;25.902;2023-01-16T11:12:23;2.10;99.90
14985;DHT22;7588;62.368;25.902;2023-01-16T11:15:23;2.20;99.90
14985;DHT22;7588;62.368;25.902;2023-01-16T11:20:59;2.20;99.90
14985;DHT22;7588;62.368;25.902;2023-01-16T11:23:33;2.20;99.90
14985;DHT22;7588;62.368;25.902;2023-01-16T11:26:01;2.20;99.90
14985;DHT22;7588;62.368;25.902;2023-01-16T11:28:29;2.30;99.90
14985;DHT22;7588;62.368;25.902;2023-01-16T11:31:00;2.30;99.90
14985;DHT22;7588;62.368;25.902;2023-01-16T11:33:37;2.20;99.90
14985;DHT22;7588;62.368;25.902;2023-01-16T11:36:04;2.20;99.90
14985;DHT22;7588;62.368;25.902;2023-01-16T11:38:35;2.20;99.90
14985;DHT22;7588;62.368;25.902;2023-01-16T11:41:04;2.20;99.90
14985;DHT22;7588;62.368;25.902;2023-01-16T11:43:33;2.20;99.90
14985;DHT22;7588;62.368;25.902;2023-01-16T11:46:34;2.20;99.90
14985;DHT22;7588;62.368;25.902;2023-01-16T11:49:11;2.20;99.90
14985;DHT22;7588;62.368;25.902;2023-01-16T11:51:39;2.20;99.90
14985;DHT22;7588;62.368;25.902;2023-01-16T11:54:14;2.20;99.90
14985;DHT22;7588;62.368;25.902;2023-01-16T11:59:49;2.20;99.90
14985;DHT22;7588;62.368;25.902;2023-01-16T12:08:19;2.20;99.90
14985;DHT22;7588;62.368;25.902;2023-01-16T12:11:10;2.10;99.90
14985;DHT22;7588;62.368;25.902;2023-01-16T12:22:23;2.10;99.90
14985;DHT22;7588;62.368;25.902;2023-01-16T12:30:27;2.20;99.90
14985;DHT22;7588;62.368;25.902;2023-01-16T12:35:47;2.20;99.90
14985;DHT22;7588;62.368;25.902;2023-01-16T12:38:25;2.20;99.90
14985;DHT22;7588;62.368;25.902;2023-01-16T12:55:21;2.40;99.90
14985;DHT22;7588;62.368;25.902;2023-01-16T12:58:09;2.40;99.90
14985;DHT22;7588;62.368;25.902;2023-01-16T13:00:43;2.40;99.90
14985;DHT22;7588;62.368;25.902;2023-01-16T13:03:27;2.40;99.90
14985;DHT22;7588;62.368;25.902;2023-01-16T13:05:56;2.40;99.90
14985;DHT22;7588;62.368;25.902;2023-01-16T13:08:33;2.40;99.90
14985;DHT22;7588;62.368;25.902;2023-01-16T13:11:07;2.40;99.90
14985;DHT22;7588;62.368;25.902;2023-01-16T13:13:57;2.50;99.90
14985;DHT22;7588;62.368;25.902;2023-01-16T13:16:32;2.50;99.90
14985;DHT22;7588;62.368;25.902;2023-01-16T13:21:45;2.40;99.90
14985;DHT22;7588;62.368;25.902;2023-01-16T13:24:21;2.40;99.90
14985;DHT22;7588;62.368;25.902;2023-01-16T13:26:56;2.40;99.90
14985;DHT22;7588;62.368;25.902;2023-01-16T13:29:30;2.40;99.90
14985;DHT22;7588;62.368;25.902;2023-01-16T13:34:40;2.40;99.90
14985;DHT22;7588;62.368;25.902;2023-01-16T13:42:29;2.30;99.90
14985;DHT22;7588;62.368;25.902;2023-01-16T13:45:01;2.30;99.90
14985;DHT22;7588;62.368;25.902;2023-01-16T13:47:46;2.40;99.90
14985;DHT22;7588;62.368;25.902;2023-01-16T13:50:27;2.30;99.90
14985;DHT22;7588;62.368;25.902;2023-01-16T13:52:56;2.30;99.90
14985;DHT22;7588;62.368;25.902;2023-01-16T13:55:29;2.30;99.90
14985;DHT22;7588;62.368;25.902;2023-01-16T13:58:05;2.40;99.90
14985;DHT22;7588;62.368;25.902;2023-01-16T14:00:32;2.30;99.90
14985;DHT22;7588;62.368;25.902;2023-01-16T14:05:50;2.30;99.90
14985;DHT22;7588;62.368;25.902;2023-01-16T14:11:35;2.30;99.90
14985;DHT22;7588;62.368;25.902;2023-01-16T14:14:23;2.20;99.90
14985;DHT22;7588;62.368;25.902;2023-01-16T14:17:08;2.20;99.90
14985;DHT22;7588;62.368;25.902;2023-01-16T14:19:41;2.20;99.90
14985;DHT22;7588;62.368;25.902;2023-01-16T14:22:18;2.20;99.90
14985;DHT22;7588;62.368;25.902;2023-01-16T14:24:46;2.20;99.90
14985;DHT22;7588;62.368;25.902;2023-01-16T14:27:17;2.20;99.90
14985;DHT22;7588;62.368;25.902;2023-01-16T14:32:18;2.10;99.90
14985;DHT22;7588;62.368;25.902;2023-01-16T14:34:57;2.10;99.90
14985;DHT22;7588;62.368;25.902;2023-01-16T14:37:38;2.10;99.90
14985;DHT22;7588;62.368;25.902;2023-01-16T14:45:29;1.90;99.90
14985;DHT22;7588;62.368;25.902;2023-01-16T14:53:57;1.70;99.90
14985;DHT22;7588;62.368;25.902;2023-01-16T14:56:42;1.70;99.90
14985;DHT22;7588;62.368;25.902;2023-01-16T14:59:29;1.70;99.90
14985;DHT22;7588;62.368;25.902;2023-01-16T15:02:13;1.70;99.90
14985;DHT22;7588;62.368;25.902;2023-01-16T15:05:15;1.70;99.90
14985;DHT22;7588;62.368;25.902;2023-01-16T15:07:50;1.60;99.90
14985;DHT22;7588;62.368;25.902;2023-01-16T15:10:36;1.70;99.90
14985;DHT22;7588;62.368;25.902;2023-01-16T15:13:23;1.70;99.90
14985;DHT22;7588;62.368;25.902;2023-01-16T15:15:53;1.70;99.90
14985;DHT22;7588;62.368;25.902;2023-01-16T15:18:21;1.70;99.90
14985;DHT22;7588;62.368;25.902;2023-01-16T15:21:13;1.70;99.90
14985;DHT22;7588;62.368;25.902;2023-01-16T15:23:57;1.70;99.90
14985;DHT22;7588;62.368;25.902;2023-01-16T15:31:40;1.70;99.90
14985;DHT22;7588;62.368;25.902;2023-01-16T15:36:47;1.60;99.90
14985;DHT22;7588;62.368;25.902;2023-01-16T15:41:50;1.70;99.90
14985;DHT22;7588;62.368;25.902;2023-01-16T15:44:39;1.70;99.90
14985;DHT22;7588;62.368;25.902;2023-01-16T15:47:40;1.70;99.90
14985;DHT22;7588;62.368;25.902;2023-01-16T15:53:12;1.60;99.90
14985;DHT22;7588;62.368;25.902;2023-01-16T15:55:43;1.60;99.90
14985;DHT22;7588;62.368;25.902;2023-01-16T15:58:30;1.60;99.90
14985;DHT22;7588;62.368;25.902;2023-01-16T16:01:04;1.60;99.90
14985;DHT22;7588;62.368;25.902;2023-01-16T16:03:47;1.60;99.90
14985;DHT22;7588;62.368;25.902;2023-01-16T16:06:16;1.70;99.90
14985;DHT22;7588;62.368;25.902;2023-01-16T16:08:48;1.60;99.90
14985;DHT22;7588;62.368;25.902;2023-01-16T16:11:23;1.60;99.90
14985;DHT22;7588;62.368;25.902;2023-01-16T16:14:21;1.60;99.90
14985;DHT22;7588;62.368;25.902;2023-01-16T16:17:25;1.60;99.90
14985;DHT22;7588;62.368;25.902;2023-01-16T16:28:28;1.60;99.90
14985;DHT22;7588;62.368;25.902;2023-01-16T16:31:27;1.60;99.90
14985;DHT22;7588;62.368;25.902;2023-01-16T16:36:23;1.60;99.90
14985;DHT22;7588;62.368;25.902;2023-01-16T16:38:51;1.60;99.90
14985;DHT22;7588;62.368;25.902;2023-01-16T16:43:55;1.60;99.90
14985;DHT22;7588;62.368;25.902;2023-01-16T16:48:51;1.60;99.90
14985;DHT22;7588;62.368;25.902;2023-01-16T16:51:30;1.60;99.90
14985;DHT22;7588;62.368;25.902;2023-01-16T16:54:17;1.60;99.90
14985;DHT22;7588;62.368;25.902;2023-01-16T16:56:49;1.60;99.90
14985;DHT22;7588;62.368;25.902;2023-01-16T16:59:18;1.60;99.90
14985;DHT22;7588;62.368;25.902;2023-01-16T17:01:49;1.60;99.90
14985;DHT22;7588;62.368;25.902;2023-01-16T17:04:15;1.60;99.90
14985;DHT22;7588;62.368;25.902;2023-01-16T17:06:45;1.60;99.90
14985;DHT22;7588;62.368;25.902;2023-01-16T17:09:14;1.60;99.90
14985;DHT22;7588;62.368;25.902;2023-01-16T17:11:42;1.50;99.90
14985;DHT22;7588;62.368;25.902;2023-01-16T17:14:08;1.50;99.90
14985;DHT22;7588;62.368;25.902;2023-01-16T17:16:34;1.40;99.90
14985;DHT22;7588;62.368;25.902;2023-01-16T17:19:19;1.40;99.90
14985;DHT22;7588;62.368;25.902;2023-01-16T17:21:45;1.30;99.90
14985;DHT22;7588;62.368;25.902;2023-01-16T17:24:20;1.20;99.90
14985;DHT22;7588;62.368;25.902;2023-01-16T17:26:46;1.10;99.90
14985;DHT22;7588;62.368;25.902;2023-01-16T17:29:12;1.10;99.90
14985;DHT22;7588;62.368;25.902;2023-01-16T17:31:41;1.10;99.90
14985;DHT22;7588;62.368;25.902;2023-01-16T17:34:15;1.00;99.90
14985;DHT22;7588;62.368;25.902;2023-01-16T17:36:41;1.10;99.90
14985;DHT22;7588;62.368;25.902;2023-01-16T17:39:07;1.10;99.90
14985;DHT22;7588;62.368;25.902;2023-01-16T17:41:35;1.10;99.90
14985;DHT22;7588;62.368;25.902;2023-01-16T17:44:18;1.10;99.90
14985;DHT22;7588;62.368;25.902;2023-01-16T17:47:03;1.10;99.90
14985;DHT22;7588;62.368;25.902;2023-01-16T17:49:29;1.10;99.90
14985;DHT22;7588;62.368;25.902;2023-01-16T17:51:55;1.00;99.90
14985;DHT22;7588;62.368;25.902;2023-01-16T17:54:21;1.00;99.90
14985;DHT22;7588;62.368;25.902;2023-01-16T17:57:05;0.90;99.90
14985;DHT22;7588;62.368;25.902;2023-01-16T17:59:31;0.90;99.90
14985;DHT22;7588;62.368;25.902;2023-01-16T18:01:57;0.90;99.90
14985;DHT22;7588;62.368;25.902;2023-01-16T18:04:23;0.90;99.90
14985;DHT22;7588;62.368;25.902;2023-01-16T18:06:48;0.90;99.90
14985;DHT22;7588;62.368;25.902;2023-01-16T18:09:15;1.00;99.90
14985;DHT22;7588;62.368;25.902;2023-01-16T18:11:42;1.00;99.90
14985;DHT22;7588;62.368;25.902;2023-01-16T18:14:27;0.90;99.90
14985;DHT22;7588;62.368;25.902;2023-01-16T18:17:17;0.90;99.90
14985;DHT22;7588;62.368;25.902;2023-01-16T18:19:53;0.90;99.90
14985;DHT22;7588;62.368;25.902;2023-01-16T18:22:30;1.00;99.90
14985;DHT22;7588;62.368;25.902;2023-01-16T18:25:04;0.90;99.90
14985;DHT22;7588;62.368;25.902;2023-01-16T18:27:30;0.90;99.90
14985;DHT22;7588;62.368;25.902;2023-01-16T18:29:56;0.90;99.90
14985;DHT22;7588;62.368;25.902;2023-01-16T18:32:22;0.90;99.90
14985;DHT22;7588;62.368;25.902;2023-01-16T18:35:01;0.80;99.90
14985;DHT22;7588;62.368;25.902;2023-01-16T18:37:36;0.70;99.90
14985;DHT22;7588;62.368;25.902;2023-01-16T18:40:09;0.60;99.90
14985;DHT22;7588;62.368;25.902;2023-01-16T18:42:54;0.50;99.90
14985;DHT22;7588;62.368;25.902;2023-01-16T18:45:38;0.40;99.90
14985;DHT22;7588;62.368;25.902;2023-01-16T18:48:23;0.30;99.90
14985;DHT22;7588;62.368;25.902;2023-01-16T18:51:12;0.30;99.90
14985;DHT22;7588;62.368;25.902;2023-01-16T18:53:58;0.30;99.90
14985;DHT22;7588;62.368;25.902;2023-01-16T18:56:45;0.30;99.90
14985;DHT22;7588;62.368;25.902;2023-01-16T18:59:31;0.30;99.90
14985;DHT22;7588;62.368;25.902;2023-01-16T19:04:47;0.40;99.90
14985;DHT22;7588;62.368;25.902;2023-01-16T19:07:24;0.40;99.90
14985;DHT22;7588;62.368;25.902;2023-01-16T19:09:55;0.40;99.90
14985;DHT22;7588;62.368;25.902;2023-01-16T19:12:23;0.40;99.90
14985;DHT22;7588;62.368;25.902;2023-01-16T19:14:51;0.30;99.90
14985;DHT22;7588;62.368;25.902;2023-01-16T19:17:18;0.30;99.90
14985;DHT22;7588;62.368;25.902;2023-01-16T19:19:44;0.20;99.90
14985;DHT22;7588;62.368;25.902;2023-01-16T19:22:10;0.20;99.90